sensor_id;sensor_type;location;lat;lon;timestamp;P1;durP1;ratioP1;P2;durP2;ratioP2
61960;SDS011;47923;42.506;24.192;2023-02-02T00:00:35;9.50;;;4.38;;
61960;SDS011;47923;42.506;24.192;2023-02-02T00:03:00;7.93;;;3.33;;
61960;SDS011;47923;42.506;24.192;2023-02-02T00:05:25;6.30;;;2.72;;
61960;SDS011;47923;42.506;24.192;2023-02-02T00:07:51;8.65;;;2.58;;
61960;SDS011;47923;42.506;24.192;2023-02-02T00:10:17;6.32;;;3.28;;
61960;SDS011;47923;42.506;24.192;2023-02-02T00:12:42;7.93;;;3.28;;
61960;SDS011;47923;42.506;24.192;2023-02-02T00:15:08;7.68;;;3.28;;
61960;SDS011;47923;42.506;24.192;2023-02-02T00:17:33;6.63;;;3.00;;
61960;SDS011;47923;42.506;24.192;2023-02-02T00:19:59;7.32;;;3.10;;
61960;SDS011;47923;42.506;24.192;2023-02-02T00:22:24;8.25;;;2.90;;
61960;SDS011;47923;42.506;24.192;2023-02-02T00:24:50;8.07;;;3.20;;
61960;SDS011;47923;42.506;24.192;2023-02-02T00:27:15;6.15;;;2.70;;
61960;SDS011;47923;42.506;24.192;2023-02-02T00:29:40;7.50;;;3.05;;
61960;SDS011;47923;42.506;24.192;2023-02-02T00:32:06;7.68;;;2.50;;
61960;SDS011;47923;42.506;24.192;2023-02-02T00:34:31;6.13;;;2.50;;
61960;SDS011;47923;42.506;24.192;2023-02-02T00:36:57;6.00;;;2.38;;
61960;SDS011;47923;42.506;24.192;2023-02-02T00:39:23;5.93;;;2.13;;
61960;SDS011;47923;42.506;24.192;2023-02-02T00:41:50;5.88;;;2.40;;
61960;SDS011;47923;42.506;24.192;2023-02-02T00:44:15;5.80;;;2.28;;
61960;SDS011;47923;42.506;24.192;2023-02-02T00:46:59;6.22;;;2.55;;
61960;SDS011;47923;42.506;24.192;2023-02-02T00:49:25;9.25;;;3.40;;
61960;SDS011;47923;42.506;24.192;2023-02-02T00:51:51;7.47;;;3.40;;
61960;SDS011;47923;42.506;24.192;2023-02-02T00:54:16;7.88;;;2.95;;
61960;SDS011;47923;42.506;24.192;2023-02-02T00:56:42;9.90;;;3.70;;
61960;SDS011;47923;42.506;24.192;2023-02-02T00:59:08;7.10;;;3.10;;
61960;SDS011;47923;42.506;24.192;2023-02-02T01:01:33;8.38;;;3.10;;
61960;SDS011;47923;42.506;24.192;2023-02-02T01:03:59;8.05;;;3.25;;
61960;SDS011;47923;42.506;24.192;2023-02-02T01:06:24;9.45;;;2.80;;
61960;SDS011;47923;42.506;24.192;2023-02-02T01:08:50;6.68;;;2.95;;
61960;SDS011;47923;42.506;24.192;2023-02-02T01:11:15;10.75;;;3.13;;
61960;SDS011;47923;42.506;24.192;2023-02-02T01:13:41;9.95;;;3.60;;
61960;SDS011;47923;42.506;24.192;2023-02-02T01:16:07;10.45;;;3.30;;
61960;SDS011;47923;42.506;24.192;2023-02-02T01:18:33;7.72;;;3.17;;
61960;SDS011;47923;42.506;24.192;2023-02-02T01:21:00;8.88;;;3.33;;
61960;SDS011;47923;42.506;24.192;2023-02-02T01:23:28;7.93;;;2.95;;
61960;SDS011;47923;42.506;24.192;2023-02-02T01:25:55;8.80;;;3.33;;
61960;SDS011;47923;42.506;24.192;2023-02-02T01:28:22;8.13;;;3.20;;
61960;SDS011;47923;42.506;24.192;2023-02-02T01:30:48;7.35;;;2.70;;
61960;SDS011;47923;42.506;24.192;2023-02-02T01:33:15;8.07;;;2.88;;
61960;SDS011;47923;42.506;24.192;2023-02-02T01:35:44;7.78;;;3.25;;
61960;SDS011;47923;42.506;24.192;2023-02-02T01:38:14;8.33;;;3.30;;
61960;SDS011;47923;42.506;24.192;2023-02-02T01:40:47;7.60;;;2.40;;
61960;SDS011;47923;42.506;24.192;2023-02-02T01:43:22;6.68;;;2.63;;
61960;SDS011;47923;42.506;24.192;2023-02-02T01:45:50;9.60;;;3.35;;
61960;SDS011;47923;42.506;24.192;2023-02-02T01:48:21;7.32;;;3.30;;
61960;SDS011;47923;42.506;24.192;2023-02-02T01:50:51;12.07;;;3.38;;
61960;SDS011;47923;42.506;24.192;2023-02-02T01:53:19;7.15;;;3.17;;
61960;SDS011;47923;42.506;24.192;2023-02-02T01:55:45;9.95;;;3.67;;
61960;SDS011;47923;42.506;24.192;2023-02-02T01:58:17;6.80;;;3.33;;
61960;SDS011;47923;42.506;24.192;2023-02-02T02:00:47;9.77;;;3.45;;
61960;SDS011;47923;42.506;24.192;2023-02-02T02:03:14;8.52;;;3.78;;
61960;SDS011;47923;42.506;24.192;2023-02-02T02:05:47;8.27;;;3.65;;
61960;SDS011;47923;42.506;24.192;2023-02-02T02:10:50;7.15;;;3.17;;
61960;SDS011;47923;42.506;24.192;2023-02-02T02:13:16;9.45;;;3.47;;
61960;SDS011;47923;42.506;24.192;2023-02-02T02:16:05;6.72;;;3.28;;
61960;SDS011;47923;42.506;24.192;2023-02-02T02:18:44;7.90;;;3.63;;
61960;SDS011;47923;42.506;24.192;2023-02-02T02:21:26;9.02;;;3.47;;
61960;SDS011;47923;42.506;24.192;2023-02-02T02:24:21;6.93;;;3.38;;
61960;SDS011;47923;42.506;24.192;2023-02-02T02:27:18;7.35;;;3.20;;
61960;SDS011;47923;42.506;24.192;2023-02-02T02:33:09;7.47;;;3.23;;
61960;SDS011;47923;42.506;24.192;2023-02-02T02:38:25;7.40;;;3.40;;
61960;SDS011;47923;42.506;24.192;2023-02-02T02:41:00;10.20;;;3.63;;
61960;SDS011;47923;42.506;24.192;2023-02-02T02:43:30;6.78;;;3.30;;
61960;SDS011;47923;42.506;24.192;2023-02-02T02:46:00;7.85;;;3.40;;
61960;SDS011;47923;42.506;24.192;2023-02-02T02:48:27;9.65;;;4.13;;
61960;SDS011;47923;42.506;24.192;2023-02-02T02:51:02;8.27;;;3.83;;
61960;SDS011;47923;42.506;24.192;2023-02-02T02:53:29;10.25;;;3.63;;
61960;SDS011;47923;42.506;24.192;2023-02-02T02:56:05;10.82;;;3.70;;
61960;SDS011;47923;42.506;24.192;2023-02-02T02:58:53;9.75;;;3.85;;
61960;SDS011;47923;42.506;24.192;2023-02-02T03:01:32;8.05;;;3.60;;
61960;SDS011;47923;42.506;24.192;2023-02-02T03:09:21;7.30;;;3.63;;
61960;SDS011;47923;42.506;24.192;2023-02-02T03:11:49;6.72;;;3.22;;
61960;SDS011;47923;42.506;24.192;2023-02-02T03:14:14;10.20;;;3.92;;
61960;SDS011;47923;42.506;24.192;2023-02-02T03:16:40;9.43;;;3.33;;
61960;SDS011;47923;42.506;24.192;2023-02-02T03:19:05;8.30;;;3.08;;
61960;SDS011;47923;42.506;24.192;2023-02-02T03:21:32;8.00;;;3.67;;
61960;SDS011;47923;42.506;24.192;2023-02-02T03:23:58;5.95;;;3.30;;
61960;SDS011;47923;42.506;24.192;2023-02-02T03:26:24;8.30;;;3.78;;
61960;SDS011;47923;42.506;24.192;2023-02-02T03:28:50;11.05;;;4.28;;
61960;SDS011;47923;42.506;24.192;2023-02-02T03:31:16;10.55;;;3.80;;
61960;SDS011;47923;42.506;24.192;2023-02-02T03:33:42;8.70;;;3.78;;
61960;SDS011;47923;42.506;24.192;2023-02-02T03:36:08;8.32;;;3.85;;
61960;SDS011;47923;42.506;24.192;2023-02-02T03:38:34;8.77;;;3.92;;
61960;SDS011;47923;42.506;24.192;2023-02-02T03:40:59;9.75;;;3.90;;
61960;SDS011;47923;42.506;24.192;2023-02-02T03:43:25;10.77;;;4.13;;
61960;SDS011;47923;42.506;24.192;2023-02-02T03:46:00;11.60;;;4.70;;
61960;SDS011;47923;42.506;24.192;2023-02-02T03:48:28;8.45;;;3.70;;
61960;SDS011;47923;42.506;24.192;2023-02-02T03:50:53;9.60;;;4.80;;
61960;SDS011;47923;42.506;24.192;2023-02-02T03:53:19;8.50;;;3.80;;
61960;SDS011;47923;42.506;24.192;2023-02-02T03:55:45;10.23;;;3.83;;
61960;SDS011;47923;42.506;24.192;2023-02-02T03:58:10;9.77;;;4.50;;
61960;SDS011;47923;42.506;24.192;2023-02-02T04:00:36;9.60;;;4.35;;
61960;SDS011;47923;42.506;24.192;2023-02-02T04:03:01;8.32;;;3.97;;
61960;SDS011;47923;42.506;24.192;2023-02-02T04:05:27;10.93;;;4.30;;
61960;SDS011;47923;42.506;24.192;2023-02-02T04:07:52;8.65;;;3.72;;
61960;SDS011;47923;42.506;24.192;2023-02-02T04:10:18;11.23;;;4.97;;
61960;SDS011;47923;42.506;24.192;2023-02-02T04:12:43;12.82;;;5.63;;
61960;SDS011;47923;42.506;24.192;2023-02-02T04:15:09;10.07;;;4.47;;
61960;SDS011;47923;42.506;24.192;2023-02-02T04:17:35;11.23;;;5.07;;
61960;SDS011;47923;42.506;24.192;2023-02-02T04:20:01;11.82;;;5.90;;
61960;SDS011;47923;42.506;24.192;2023-02-02T04:22:28;11.82;;;5.07;;
61960;SDS011;47923;42.506;24.192;2023-02-02T04:24:53;13.00;;;5.93;;
61960;SDS011;47923;42.506;24.192;2023-02-02T04:27:18;11.10;;;5.55;;
61960;SDS011;47923;42.506;24.192;2023-02-02T04:29:44;10.80;;;5.35;;
61960;SDS011;47923;42.506;24.192;2023-02-02T04:32:09;13.45;;;5.63;;
61960;SDS011;47923;42.506;24.192;2023-02-02T04:34:35;10.68;;;4.97;;
61960;SDS011;47923;42.506;24.192;2023-02-02T04:37:00;9.50;;;5.07;;
61960;SDS011;47923;42.506;24.192;2023-02-02T04:39:26;11.77;;;5.75;;
61960;SDS011;47923;42.506;24.192;2023-02-02T04:41:51;11.25;;;5.70;;
61960;SDS011;47923;42.506;24.192;2023-02-02T04:44:17;12.48;;;6.10;;
61960;SDS011;47923;42.506;24.192;2023-02-02T04:46:43;13.75;;;7.28;;
61960;SDS011;47923;42.506;24.192;2023-02-02T04:49:09;17.02;;;8.73;;
61960;SDS011;47923;42.506;24.192;2023-02-02T04:51:36;14.10;;;7.25;;
61960;SDS011;47923;42.506;24.192;2023-02-02T04:54:02;12.50;;;6.60;;
61960;SDS011;47923;42.506;24.192;2023-02-02T04:56:28;13.07;;;6.00;;
61960;SDS011;47923;42.506;24.192;2023-02-02T04:58:54;26.00;;;13.95;;
61960;SDS011;47923;42.506;24.192;2023-02-02T05:01:22;22.13;;;10.40;;
61960;SDS011;47923;42.506;24.192;2023-02-02T05:03:48;32.33;;;14.38;;
61960;SDS011;47923;42.506;24.192;2023-02-02T05:06:14;36.83;;;15.70;;
61960;SDS011;47923;42.506;24.192;2023-02-02T05:08:40;32.75;;;14.45;;
61960;SDS011;47923;42.506;24.192;2023-02-02T05:11:12;27.17;;;12.40;;
61960;SDS011;47923;42.506;24.192;2023-02-02T05:13:39;18.13;;;8.73;;
61960;SDS011;47923;42.506;24.192;2023-02-02T05:16:05;14.52;;;7.38;;
61960;SDS011;47923;42.506;24.192;2023-02-02T05:18:31;13.45;;;6.63;;
61960;SDS011;47923;42.506;24.192;2023-02-02T05:21:00;10.98;;;6.03;;
61960;SDS011;47923;42.506;24.192;2023-02-02T05:23:28;13.52;;;7.20;;
61960;SDS011;47923;42.506;24.192;2023-02-02T05:25:54;9.32;;;5.10;;
61960;SDS011;47923;42.506;24.192;2023-02-02T05:28:20;13.52;;;6.70;;
61960;SDS011;47923;42.506;24.192;2023-02-02T05:30:46;12.77;;;5.45;;
61960;SDS011;47923;42.506;24.192;2023-02-02T05:33:12;12.18;;;5.65;;
61960;SDS011;47923;42.506;24.192;2023-02-02T05:35:37;11.48;;;7.20;;
61960;SDS011;47923;42.506;24.192;2023-02-02T05:38:03;10.48;;;6.13;;
61960;SDS011;47923;42.506;24.192;2023-02-02T05:40:29;11.88;;;6.25;;
61960;SDS011;47923;42.506;24.192;2023-02-02T05:42:54;10.55;;;6.18;;
61960;SDS011;47923;42.506;24.192;2023-02-02T05:45:20;11.80;;;5.90;;
61960;SDS011;47923;42.506;24.192;2023-02-02T05:47:46;11.18;;;5.32;;
61960;SDS011;47923;42.506;24.192;2023-02-02T05:50:11;13.75;;;7.28;;
61960;SDS011;47923;42.506;24.192;2023-02-02T05:52:37;17.55;;;7.90;;
61960;SDS011;47923;42.506;24.192;2023-02-02T05:55:05;17.02;;;9.10;;
61960;SDS011;47923;42.506;24.192;2023-02-02T05:57:31;19.13;;;10.75;;
61960;SDS011;47923;42.506;24.192;2023-02-02T05:59:57;16.60;;;9.55;;
61960;SDS011;47923;42.506;24.192;2023-02-02T06:02:22;15.25;;;8.82;;
61960;SDS011;47923;42.506;24.192;2023-02-02T06:04:47;15.00;;;7.97;;
61960;SDS011;47923;42.506;24.192;2023-02-02T06:07:13;14.15;;;7.28;;
61960;SDS011;47923;42.506;24.192;2023-02-02T06:09:38;17.73;;;8.93;;
61960;SDS011;47923;42.506;24.192;2023-02-02T06:12:04;16.30;;;8.98;;
61960;SDS011;47923;42.506;24.192;2023-02-02T06:14:29;15.10;;;7.72;;
61960;SDS011;47923;42.506;24.192;2023-02-02T06:16:55;14.07;;;7.63;;
61960;SDS011;47923;42.506;24.192;2023-02-02T06:19:20;14.55;;;7.88;;
61960;SDS011;47923;42.506;24.192;2023-02-02T06:21:46;13.80;;;7.97;;
61960;SDS011;47923;42.506;24.192;2023-02-02T06:24:12;14.43;;;8.15;;
61960;SDS011;47923;42.506;24.192;2023-02-02T06:26:37;14.02;;;7.63;;
61960;SDS011;47923;42.506;24.192;2023-02-02T06:29:03;15.48;;;7.93;;
61960;SDS011;47923;42.506;24.192;2023-02-02T06:31:28;17.38;;;8.20;;
61960;SDS011;47923;42.506;24.192;2023-02-02T06:33:55;12.63;;;7.50;;
61960;SDS011;47923;42.506;24.192;2023-02-02T06:36:22;16.13;;;7.85;;
61960;SDS011;47923;42.506;24.192;2023-02-02T06:38:52;13.70;;;6.20;;
61960;SDS011;47923;42.506;24.192;2023-02-02T06:41:19;16.70;;;8.70;;
61960;SDS011;47923;42.506;24.192;2023-02-02T06:43:46;19.83;;;11.23;;
61960;SDS011;47923;42.506;24.192;2023-02-02T06:46:12;22.20;;;9.40;;
61960;SDS011;47923;42.506;24.192;2023-02-02T06:48:37;10.07;;;5.85;;
61960;SDS011;47923;42.506;24.192;2023-02-02T06:51:04;13.05;;;5.90;;
61960;SDS011;47923;42.506;24.192;2023-02-02T06:53:30;9.88;;;4.25;;
61960;SDS011;47923;42.506;24.192;2023-02-02T06:56:00;12.43;;;5.45;;
61960;SDS011;47923;42.506;24.192;2023-02-02T06:58:29;9.18;;;4.63;;
61960;SDS011;47923;42.506;24.192;2023-02-02T07:00:59;13.30;;;6.88;;
61960;SDS011;47923;42.506;24.192;2023-02-02T07:03:28;11.85;;;6.32;;
61960;SDS011;47923;42.506;24.192;2023-02-02T07:05:54;13.23;;;5.70;;
61960;SDS011;47923;42.506;24.192;2023-02-02T07:08:19;14.55;;;6.85;;
61960;SDS011;47923;42.506;24.192;2023-02-02T07:10:45;14.43;;;7.68;;
61960;SDS011;47923;42.506;24.192;2023-02-02T07:13:11;17.58;;;8.02;;
61960;SDS011;47923;42.506;24.192;2023-02-02T07:15:37;12.15;;;6.90;;
61960;SDS011;47923;42.506;24.192;2023-02-02T07:18:04;11.20;;;6.53;;
61960;SDS011;47923;42.506;24.192;2023-02-02T07:20:29;7.15;;;3.75;;
61960;SDS011;47923;42.506;24.192;2023-02-02T07:22:55;28.25;;;8.13;;
61960;SDS011;47923;42.506;24.192;2023-02-02T07:25:21;28.83;;;22.85;;
61960;SDS011;47923;42.506;24.192;2023-02-02T07:27:46;14.88;;;9.55;;
61960;SDS011;47923;42.506;24.192;2023-02-02T07:30:16;15.07;;;7.53;;
61960;SDS011;47923;42.506;24.192;2023-02-02T07:32:46;15.60;;;6.72;;
61960;SDS011;47923;42.506;24.192;2023-02-02T07:35:12;14.05;;;7.60;;
61960;SDS011;47923;42.506;24.192;2023-02-02T07:37:37;14.88;;;7.95;;
61960;SDS011;47923;42.506;24.192;2023-02-02T07:40:03;16.92;;;8.63;;
61960;SDS011;47923;42.506;24.192;2023-02-02T07:42:28;12.32;;;6.15;;
61960;SDS011;47923;42.506;24.192;2023-02-02T07:44:54;11.95;;;6.65;;
61960;SDS011;47923;42.506;24.192;2023-02-02T07:47:19;14.85;;;7.20;;
61960;SDS011;47923;42.506;24.192;2023-02-02T07:49:45;13.30;;;6.53;;
61960;SDS011;47923;42.506;24.192;2023-02-02T07:52:10;12.00;;;5.93;;
61960;SDS011;47923;42.506;24.192;2023-02-02T07:54:36;11.55;;;5.10;;
61960;SDS011;47923;42.506;24.192;2023-02-02T07:57:01;10.82;;;5.50;;
61960;SDS011;47923;42.506;24.192;2023-02-02T07:59:27;14.68;;;5.53;;
61960;SDS011;47923;42.506;24.192;2023-02-02T08:01:52;12.55;;;5.47;;
61960;SDS011;47923;42.506;24.192;2023-02-02T08:04:17;20.80;;;11.45;;
61960;SDS011;47923;42.506;24.192;2023-02-02T08:06:43;14.02;;;5.97;;
61960;SDS011;47923;42.506;24.192;2023-02-02T08:09:09;13.30;;;6.05;;
61960;SDS011;47923;42.506;24.192;2023-02-02T08:11:35;11.60;;;4.18;;
61960;SDS011;47923;42.506;24.192;2023-02-02T08:14:02;9.82;;;4.78;;
61960;SDS011;47923;42.506;24.192;2023-02-02T08:16:29;13.93;;;7.70;;
61960;SDS011;47923;42.506;24.192;2023-02-02T08:18:56;12.20;;;6.07;;
61960;SDS011;47923;42.506;24.192;2023-02-02T08:21:22;12.60;;;5.40;;
61960;SDS011;47923;42.506;24.192;2023-02-02T08:23:48;14.45;;;5.95;;
61960;SDS011;47923;42.506;24.192;2023-02-02T08:28:42;12.23;;;5.30;;
61960;SDS011;47923;42.506;24.192;2023-02-02T08:31:10;11.50;;;4.95;;
61960;SDS011;47923;42.506;24.192;2023-02-02T08:33:44;9.55;;;5.22;;
61960;SDS011;47923;42.506;24.192;2023-02-02T08:36:10;10.25;;;5.18;;
61960;SDS011;47923;42.506;24.192;2023-02-02T08:38:37;12.23;;;6.03;;
61960;SDS011;47923;42.506;24.192;2023-02-02T08:41:04;10.73;;;6.25;;
61960;SDS011;47923;42.506;24.192;2023-02-02T08:43:30;9.90;;;5.72;;
61960;SDS011;47923;42.506;24.192;2023-02-02T08:45:55;13.18;;;4.97;;
61960;SDS011;47923;42.506;24.192;2023-02-02T08:48:21;12.05;;;5.07;;
61960;SDS011;47923;42.506;24.192;2023-02-02T08:50:56;14.38;;;5.63;;
61960;SDS011;47923;42.506;24.192;2023-02-02T08:53:23;13.60;;;4.45;;
61960;SDS011;47923;42.506;24.192;2023-02-02T08:56:06;8.68;;;5.20;;
61960;SDS011;47923;42.506;24.192;2023-02-02T08:58:34;15.48;;;6.68;;
61960;SDS011;47923;42.506;24.192;2023-02-02T09:01:06;18.05;;;7.00;;
61960;SDS011;47923;42.506;24.192;2023-02-02T09:03:35;13.93;;;6.63;;
61960;SDS011;47923;42.506;24.192;2023-02-02T09:06:08;14.32;;;6.93;;
61960;SDS011;47923;42.506;24.192;2023-02-02T09:08:35;14.35;;;5.90;;
61960;SDS011;47923;42.506;24.192;2023-02-02T09:11:11;14.65;;;7.80;;
61960;SDS011;47923;42.506;24.192;2023-02-02T09:13:37;15.63;;;6.00;;
61960;SDS011;47923;42.506;24.192;2023-02-02T09:16:04;9.18;;;4.88;;
61960;SDS011;47923;42.506;24.192;2023-02-02T09:18:33;23.02;;;6.28;;
61960;SDS011;47923;42.506;24.192;2023-02-02T09:21:03;14.90;;;5.80;;
61960;SDS011;47923;42.506;24.192;2023-02-02T09:23:30;10.02;;;5.22;;
61960;SDS011;47923;42.506;24.192;2023-02-02T09:25:57;15.10;;;4.63;;
61960;SDS011;47923;42.506;24.192;2023-02-02T09:28:36;13.77;;;7.05;;
61960;SDS011;47923;42.506;24.192;2023-02-02T09:31:02;11.82;;;8.00;;
61960;SDS011;47923;42.506;24.192;2023-02-02T09:33:28;17.15;;;8.70;;
61960;SDS011;47923;42.506;24.192;2023-02-02T09:35:53;11.77;;;6.10;;
61960;SDS011;47923;42.506;24.192;2023-02-02T09:38:19;14.05;;;6.03;;
61960;SDS011;47923;42.506;24.192;2023-02-02T09:40:44;12.73;;;5.50;;
61960;SDS011;47923;42.506;24.192;2023-02-02T09:46:32;10.70;;;4.72;;
61960;SDS011;47923;42.506;24.192;2023-02-02T09:49:01;11.60;;;5.75;;
61960;SDS011;47923;42.506;24.192;2023-02-02T09:51:33;11.10;;;6.47;;
61960;SDS011;47923;42.506;24.192;2023-02-02T09:54:11;9.13;;;5.13;;
61960;SDS011;47923;42.506;24.192;2023-02-02T09:56:44;12.93;;;6.15;;
61960;SDS011;47923;42.506;24.192;2023-02-02T09:59:19;10.40;;;5.68;;
61960;SDS011;47923;42.506;24.192;2023-02-02T10:02:23;17.15;;;8.73;;
61960;SDS011;47923;42.506;24.192;2023-02-02T10:05:07;11.55;;;5.50;;
61960;SDS011;47923;42.506;24.192;2023-02-02T10:07:40;9.73;;;4.90;;
61960;SDS011;47923;42.506;24.192;2023-02-02T10:10:20;10.50;;;4.72;;
61960;SDS011;47923;42.506;24.192;2023-02-02T10:20:29;12.95;;;7.20;;
61960;SDS011;47923;42.506;24.192;2023-02-02T10:22:56;16.27;;;7.10;;
61960;SDS011;47923;42.506;24.192;2023-02-02T10:25:27;9.82;;;5.47;;
61960;SDS011;47923;42.506;24.192;2023-02-02T10:28:05;11.20;;;6.25;;
61960;SDS011;47923;42.506;24.192;2023-02-02T10:30:43;8.45;;;3.95;;
61960;SDS011;47923;42.506;24.192;2023-02-02T10:33:25;8.57;;;4.43;;
61960;SDS011;47923;42.506;24.192;2023-02-02T10:36:05;6.53;;;3.53;;
61960;SDS011;47923;42.506;24.192;2023-02-02T10:45:36;10.15;;;4.80;;
61960;SDS011;47923;42.506;24.192;2023-02-02T10:47:33;10.43;;;6.22;;
61960;SDS011;47923;42.506;24.192;2023-02-02T10:50:01;10.65;;;6.18;;
61960;SDS011;47923;42.506;24.192;2023-02-02T10:52:39;11.38;;;5.70;;
61960;SDS011;47923;42.506;24.192;2023-02-02T11:03:12;6.50;;;3.47;;
61960;SDS011;47923;42.506;24.192;2023-02-02T11:05:40;10.82;;;4.18;;
61960;SDS011;47923;42.506;24.192;2023-02-02T11:08:26;7.20;;;3.88;;
61960;SDS011;47923;42.506;24.192;2023-02-02T11:10:57;9.82;;;3.65;;
61960;SDS011;47923;42.506;24.192;2023-02-02T11:13:32;8.50;;;3.80;;
61960;SDS011;47923;42.506;24.192;2023-02-02T11:16:31;12.20;;;4.90;;
61960;SDS011;47923;42.506;24.192;2023-02-02T11:18:57;12.27;;;5.80;;
61960;SDS011;47923;42.506;24.192;2023-02-02T11:21:32;9.95;;;5.70;;
61960;SDS011;47923;42.506;24.192;2023-02-02T11:24:05;13.43;;;5.78;;
61960;SDS011;47923;42.506;24.192;2023-02-02T11:29:22;13.88;;;5.20;;
61960;SDS011;47923;42.506;24.192;2023-02-02T11:31:49;11.48;;;5.40;;
61960;SDS011;47923;42.506;24.192;2023-02-02T11:34:19;10.32;;;4.90;;
61960;SDS011;47923;42.506;24.192;2023-02-02T11:36:56;15.60;;;7.97;;
61960;SDS011;47923;42.506;24.192;2023-02-02T11:39:22;7.43;;;4.63;;
61960;SDS011;47923;42.506;24.192;2023-02-02T11:41:48;11.70;;;5.53;;
61960;SDS011;47923;42.506;24.192;2023-02-02T11:44:26;11.30;;;4.68;;
61960;SDS011;47923;42.506;24.192;2023-02-02T11:46:53;10.38;;;4.57;;
61960;SDS011;47923;42.506;24.192;2023-02-02T11:49:21;13.35;;;7.30;;
61960;SDS011;47923;42.506;24.192;2023-02-02T11:52:00;13.45;;;7.22;;
61960;SDS011;47923;42.506;24.192;2023-02-02T11:54:32;13.90;;;6.88;;
61960;SDS011;47923;42.506;24.192;2023-02-02T11:57:06;11.15;;;4.93;;
61960;SDS011;47923;42.506;24.192;2023-02-02T11:59:39;14.07;;;6.78;;
61960;SDS011;47923;42.506;24.192;2023-02-02T12:04:45;11.13;;;6.78;;
61960;SDS011;47923;42.506;24.192;2023-02-02T12:09:46;9.48;;;4.53;;
61960;SDS011;47923;42.506;24.192;2023-02-02T12:17:37;11.75;;;5.95;;
61960;SDS011;47923;42.506;24.192;2023-02-02T12:20:17;9.35;;;5.90;;
61960;SDS011;47923;42.506;24.192;2023-02-02T12:25:48;9.15;;;5.05;;
61960;SDS011;47923;42.506;24.192;2023-02-02T12:28:23;11.60;;;6.40;;
61960;SDS011;47923;42.506;24.192;2023-02-02T12:31:21;11.50;;;5.80;;
61960;SDS011;47923;42.506;24.192;2023-02-02T12:34:15;6.88;;;3.88;;
61960;SDS011;47923;42.506;24.192;2023-02-02T12:36:50;10.57;;;4.85;;
61960;SDS011;47923;42.506;24.192;2023-02-02T12:39:32;8.10;;;3.75;;
61960;SDS011;47923;42.506;24.192;2023-02-02T12:47:33;8.20;;;3.88;;
61960;SDS011;47923;42.506;24.192;2023-02-02T12:55:24;10.63;;;4.82;;
61960;SDS011;47923;42.506;24.192;2023-02-02T13:03:21;12.10;;;5.03;;
61960;SDS011;47923;42.506;24.192;2023-02-02T13:09:36;12.05;;;6.00;;
61960;SDS011;47923;42.506;24.192;2023-02-02T13:12:09;8.77;;;4.35;;
61960;SDS011;47923;42.506;24.192;2023-02-02T13:14:43;9.05;;;4.55;;
61960;SDS011;47923;42.506;24.192;2023-02-02T13:17:20;9.10;;;4.43;;
61960;SDS011;47923;42.506;24.192;2023-02-02T13:19:54;11.25;;;5.57;;
61960;SDS011;47923;42.506;24.192;2023-02-02T13:22:28;10.70;;;4.93;;
61960;SDS011;47923;42.506;24.192;2023-02-02T13:24:58;12.55;;;6.25;;
61960;SDS011;47923;42.506;24.192;2023-02-02T13:27:25;11.82;;;6.53;;
61960;SDS011;47923;42.506;24.192;2023-02-02T13:30:04;15.45;;;7.18;;
61960;SDS011;47923;42.506;24.192;2023-02-02T13:32:35;17.75;;;9.90;;
61960;SDS011;47923;42.506;24.192;2023-02-02T13:35:23;20.77;;;10.63;;
61960;SDS011;47923;42.506;24.192;2023-02-02T13:38:04;15.05;;;8.77;;
61960;SDS011;47923;42.506;24.192;2023-02-02T13:40:39;30.52;;;19.27;;
61960;SDS011;47923;42.506;24.192;2023-02-02T13:53:36;36.63;;;23.92;;
61960;SDS011;47923;42.506;24.192;2023-02-02T14:01:58;26.35;;;16.90;;
61960;SDS011;47923;42.506;24.192;2023-02-02T14:04:25;34.80;;;23.95;;
61960;SDS011;47923;42.506;24.192;2023-02-02T14:07:03;28.98;;;19.85;;
61960;SDS011;47923;42.506;24.192;2023-02-02T14:09:32;29.75;;;20.30;;
61960;SDS011;47923;42.506;24.192;2023-02-02T14:12:01;24.85;;;15.95;;
61960;SDS011;47923;42.506;24.192;2023-02-02T14:14:31;20.35;;;13.88;;
61960;SDS011;47923;42.506;24.192;2023-02-02T14:24:42;19.80;;;10.65;;
61960;SDS011;47923;42.506;24.192;2023-02-02T14:29:36;19.65;;;10.93;;
61960;SDS011;47923;42.506;24.192;2023-02-02T14:34:55;17.20;;;9.45;;
61960;SDS011;47923;42.506;24.192;2023-02-02T14:55:47;63.10;;;30.30;;
61960;SDS011;47923;42.506;24.192;2023-02-02T14:58:27;57.95;;;28.30;;
61960;SDS011;47923;42.506;24.192;2023-02-02T15:06:04;55.65;;;35.58;;
61960;SDS011;47923;42.506;24.192;2023-02-02T15:08:38;44.28;;;26.48;;
61960;SDS011;47923;42.506;24.192;2023-02-02T15:11:04;33.92;;;19.15;;
61960;SDS011;47923;42.506;24.192;2023-02-02T15:14:02;23.83;;;14.02;;
61960;SDS011;47923;42.506;24.192;2023-02-02T15:16:34;16.20;;;8.20;;
61960;SDS011;47923;42.506;24.192;2023-02-02T15:19:07;20.05;;;11.48;;
61960;SDS011;47923;42.506;24.192;2023-02-02T15:21:39;18.73;;;10.55;;
61960;SDS011;47923;42.506;24.192;2023-02-02T15:24:14;19.92;;;9.25;;
61960;SDS011;47923;42.506;24.192;2023-02-02T15:26:45;11.65;;;5.95;;
61960;SDS011;47923;42.506;24.192;2023-02-02T15:29:13;12.80;;;8.38;;
61960;SDS011;47923;42.506;24.192;2023-02-02T15:31:45;13.43;;;8.80;;
61960;SDS011;47923;42.506;24.192;2023-02-02T15:37:05;12.02;;;5.40;;
61960;SDS011;47923;42.506;24.192;2023-02-02T15:39:51;9.35;;;4.63;;
61960;SDS011;47923;42.506;24.192;2023-02-02T15:42:21;10.20;;;4.43;;
61960;SDS011;47923;42.506;24.192;2023-02-02T15:47:52;13.38;;;7.15;;
61960;SDS011;47923;42.506;24.192;2023-02-02T15:50:19;14.50;;;7.30;;
61960;SDS011;47923;42.506;24.192;2023-02-02T15:52:49;39.60;;;22.08;;
61960;SDS011;47923;42.506;24.192;2023-02-02T15:55:23;43.60;;;21.30;;
61960;SDS011;47923;42.506;24.192;2023-02-02T15:57:48;45.60;;;26.37;;
61960;SDS011;47923;42.506;24.192;2023-02-02T16:00:34;19.25;;;10.80;;
61960;SDS011;47923;42.506;24.192;2023-02-02T16:03:09;12.15;;;6.18;;
61960;SDS011;47923;42.506;24.192;2023-02-02T16:08:07;13.68;;;4.20;;
61960;SDS011;47923;42.506;24.192;2023-02-02T16:10:40;10.05;;;4.95;;
61960;SDS011;47923;42.506;24.192;2023-02-02T16:13:06;9.27;;;4.07;;
61960;SDS011;47923;42.506;24.192;2023-02-02T16:15:31;12.32;;;6.82;;
61960;SDS011;47923;42.506;24.192;2023-02-02T16:20:24;12.80;;;5.47;;
61960;SDS011;47923;42.506;24.192;2023-02-02T16:22:51;8.73;;;4.28;;
61960;SDS011;47923;42.506;24.192;2023-02-02T16:25:20;10.98;;;4.63;;
61960;SDS011;47923;42.506;24.192;2023-02-02T16:27:47;12.60;;;6.32;;
61960;SDS011;47923;42.506;24.192;2023-02-02T16:30:24;12.18;;;5.97;;
61960;SDS011;47923;42.506;24.192;2023-02-02T16:32:52;12.70;;;7.05;;
61960;SDS011;47923;42.506;24.192;2023-02-02T16:35:31;13.18;;;6.40;;
61960;SDS011;47923;42.506;24.192;2023-02-02T16:38:21;10.98;;;6.03;;
61960;SDS011;47923;42.506;24.192;2023-02-02T16:40:47;15.52;;;8.30;;
61960;SDS011;47923;42.506;24.192;2023-02-02T16:43:17;17.17;;;8.52;;
61960;SDS011;47923;42.506;24.192;2023-02-02T16:53:39;19.23;;;10.95;;
61960;SDS011;47923;42.506;24.192;2023-02-02T16:56:04;23.70;;;12.73;;
61960;SDS011;47923;42.506;24.192;2023-02-02T16:58:32;21.90;;;13.25;;
61960;SDS011;47923;42.506;24.192;2023-02-02T17:01:04;22.30;;;11.98;;
61960;SDS011;47923;42.506;24.192;2023-02-02T17:03:34;18.58;;;10.40;;
61960;SDS011;47923;42.506;24.192;2023-02-02T17:06:02;12.32;;;5.82;;